x

Thomas Point, Md (tplm2) Weather Station

2:00pm - Thu 28th May 2015 All times are EDT. -4 hours from GMT.

  • Wind
    11mph
  • Sea Temp 71°f
  • Air Temp 73°f
  • Sea Pressure 1022.5mb
  • Thomas Point, Md
  • Thomas Point, Md

More Historic Weather Station data

Upgrade to MSW Pro to gain access to the past 30 days of data for over 8000 Wavebouys and Weather Stations around the globe.

Join Pro

Comparision Forecast

View Surf forecast
   
Thu 05/28 2:00pm 11
mph
1022.5mb 71f 73f
1:00pm 13 14 mph 1022.5mb 71f 73f
12:00pm 10
mph
1022.8mb 70f 72f
11:00am 9 10 mph 1022.8mb 70f 72f
10:00am 7
mph
1022.8mb 70f 71f
9:00am 8 9 mph 1022.7mb 69f 70f
8:00am 8 9 mph 1022.5mb 69f 71f
7:00am 7
mph
1022.1mb 70f 70f
6:00am 11 13 mph 1021.5mb 70f 70f
5:00am 14 15 mph 1020.8mb 69f 70f
4:00am 16
mph
1020.5mb 69f 70f
3:00am 15 16 mph 1020.5mb 69f 71f
2:00am 16 17 mph 1020.8mb 69f 71f
1:00am 15 16 mph 1020.9mb 69f 71f
12:00am 16 17 mph 1021.1mb 69f 71f
Wed 05/27 11:00pm 18 21 mph 1021.2mb 69f 73f
10:00pm 14
mph
1021.4mb 68f 73f
9:00pm 17 18 mph 1020.6mb 68f 73f
8:00pm 20 21 mph 1020mb 68f 73f
7:00pm 18 22 mph 1020.7mb 69f 75f
6:00pm 6 7 mph 1020.4mb 70f 78f
5:00pm 20 23 mph 1020mb 69f 75f
4:00pm 18 21 mph 1020mb 69f 75f
3:00pm 18
mph
1020.3mb 69f 76f
2:00pm 17
mph
1021mb 68f 75f
1:00pm 20
mph
1021.4mb 68f 73f
12:00pm 20 21 mph 1022mb 68f 73f
11:00am 18 20 mph 1022.2mb 68f 72f
10:00am 15 16 mph 1022.3mb 68f 71f
9:00am 15 17 mph 1022.4mb 68f 70f
8:00am 16 17 mph 1022.4mb 68f 70f
7:00am 16 17 mph 1022.1mb 68f 70f
6:00am 15
mph
1021.7mb 68f 70f
5:00am 16 17 mph 1021.5mb 68f 70f
4:00am 14 15 mph 1021.4mb 67f 69f
3:00am 18 20 mph 1021.6mb 67f 70f
2:00am 16 17 mph 1021.9mb 68f 70f
1:00am 20 22 mph 1021.9mb 68f 70f
12:00am 20 21 mph 1022mb 68f 71f
Tue 05/26 11:00pm 20 21 mph 1022.2mb 69f 71f
10:00pm 20 22 mph 1022.1mb 69f 71f
9:00pm 23 25 mph 1021.7mb 69f 71f
8:00pm 25 28 mph 1021.3mb 69f 72f
7:00pm 28 31 mph 1021mb 68f 73f
6:00pm 24 25 mph 1021.3mb 69f 74f
5:00pm 23 25 mph 1021.7mb 69f 73f
4:00pm 22 23 mph 1022mb 68f 73f
3:00pm 21 22 mph 1022.7mb 68f 73f
2:00pm 21 23 mph 1023.3mb 67f 73f
1:00pm 18 20 mph 1023.6mb 67f 72f
12:00pm 17 18 mph 1024.1mb 67f 70f
11:00am 16 17 mph 1024.4mb 66f 69f
10:00am 11
mph
1024.3mb 66f 68f
9:00am 14 15 mph 1024.3mb 67f 69f
8:00am 18 20 mph 1024.5mb 66f 68f
7:00am 17 18 mph 1024.2mb 66f 67f
6:00am 16 18 mph 1023.8mb 66f 67f
5:00am 16 17 mph 1023.8mb 66f 67f
4:00am 17 18 mph 1023.3mb 66f 68f
3:00am 17 20 mph 1023.2mb 66f 68f
2:00am 17 18 mph 1023.3mb 67f 68f
1:00am 20 21 mph 1023.4mb 67f 68f
12:00am 21 22 mph 1023.7mb 67f 68f
Mon 05/25 11:00pm 22 24 mph 1024mb 67f 69f
10:00pm 26 30 mph 1023.7mb 68f 70f
9:00pm 25 28 mph 1023.3mb 67f 70f
8:00pm 26 28 mph 1023.1mb 67f 71f
7:00pm 28 31 mph 1023.1mb 67f 72f
6:00pm 28 30 mph 1023.3mb 67f 72f
5:00pm 24 25 mph 1023.6mb 67f 72f
4:00pm 22 24 mph 1023.8mb 68f 72f
3:00pm 21 23 mph 1024.1mb 67f 72f
2:00pm 21 23 mph 1024.5mb 67f 72f
1:00pm 21
mph
1025mb 66f 71f
12:00pm 15 17 mph 1025.6mb 66f 71f
11:00am 11 13 mph 1025.9mb 66f 69f
10:00am 13 14 mph 1026mb 65f 70f
9:00am 8
mph
1026.5mb 66f 69f
8:00am 15 16 mph 1026.2mb 66f 68f
7:00am 16 17 mph 1025.5mb 66f 67f
6:00am 13 14 mph 1025.3mb 66f 67f
5:00am 14 16 mph 1025mb 66f 67f
4:00am 14 15 mph 1025mb 66f 67f
3:00am 11 13 mph 1025mb 66f 67f
2:00am 14 15 mph 1025mb 66f 67f
1:00am 15 16 mph 1025.2mb 66f 67f
12:00am 16 17 mph 1025.5mb 66f 67f
Sun 05/24 11:00pm 17 18 mph 1025.5mb 66f 68f
10:00pm 20 21 mph 1025.7mb 66f 69f
9:00pm 17 20 mph 1025.2mb 66f 69f
8:00pm 16 17 mph 1025.3mb 66f 70f